EIN74P LEST-EIDW
Flight info
| Callsign | EIN74P |
|---|---|
| Flight time | N/A |
| Altitude | 36000 |
| Route | KORAV DCT KORUL DCT AMPOP DCT UPCAB DCT IJALA DCT EVRIN DCT BUNED BUNED3R |
| Aircraft | A320/M-SDE3FGHIRWY/LB1 |
Departure
| Time | 2026-04-21 19:49 |
|---|---|
| Airport | Santiago-Rosalía de Castro Airport (LEST) |
Arrival
| Time | N/A |
|---|---|
| Airport | Dublin Airport (EIDW) |
| Time | Latitude | Longitude | Altitude | Speed | Heading |
|---|---|---|---|---|---|
| 2026-04-21 19:33 | 42.89284 | -8.42007 | 1199 ft | 0 kts | 161° |
| 2026-04-21 19:38 | 42.89285 | -8.42007 | 1199 ft | 0 kts | 162° |
| 2026-04-21 19:39 | 42.89297 | -8.42013 | 1198 ft | 2 kts | 161° |
| 2026-04-21 19:39 | 42.89310 | -8.42019 | 1198 ft | 2 kts | 162° |
| 2026-04-21 19:39 | 42.89322 | -8.42024 | 1197 ft | 2 kts | 161° |
| 2026-04-21 19:39 | 42.89336 | -8.42030 | 1196 ft | 2 kts | 162° |
| 2026-04-21 19:40 | 42.89349 | -8.42037 | 1196 ft | 2 kts | 161° |
| 2026-04-21 19:40 | 42.89362 | -8.42042 | 1195 ft | 2 kts | 162° |
| 2026-04-21 19:40 | 42.89375 | -8.42048 | 1195 ft | 2 kts | 161° |
| 2026-04-21 19:40 | 42.89387 | -8.42054 | 1194 ft | 1 kts | 161° |
| 2026-04-21 19:41 | 42.89395 | -8.42058 | 1194 ft | 2 kts | 158° |
| 2026-04-21 19:41 | 42.89407 | -8.42066 | 1193 ft | 1 kts | 150° |
| 2026-04-21 19:41 | 42.89412 | -8.42070 | 1192 ft | 0 kts | 147° |
| 2026-04-21 19:41 | 42.89413 | -8.42070 | 1192 ft | 0 kts | 147° |
| 2026-04-21 19:43 | 42.89414 | -8.42071 | 1192 ft | 0 kts | 147° |
| 2026-04-21 19:44 | 42.89408 | -8.42066 | 1193 ft | 7 kts | 145° |
| 2026-04-21 19:44 | 42.89391 | -8.42037 | 1195 ft | 6 kts | 103° |
| 2026-04-21 19:44 | 42.89412 | -8.41982 | 1199 ft | 10 kts | 55° |
| 2026-04-21 19:44 | 42.89442 | -8.41838 | 1207 ft | 16 kts | 75° |
| 2026-04-21 19:45 | 42.89485 | -8.41709 | 1209 ft | 12 kts | 27° |
| 2026-04-21 19:45 | 42.89586 | -8.41731 | 1206 ft | 17 kts | 345° |
| 2026-04-21 19:45 | 42.89711 | -8.41774 | 1203 ft | 20 kts | 346° |
| 2026-04-21 19:45 | 42.89853 | -8.41818 | 1199 ft | 22 kts | 344° |
| 2026-04-21 19:46 | 42.90014 | -8.41872 | 1192 ft | 24 kts | 346° |
| 2026-04-21 19:46 | 42.90185 | -8.41933 | 1187 ft | 26 kts | 345° |
| 2026-04-21 19:46 | 42.90364 | -8.41994 | 1179 ft | 28 kts | 346° |
| 2026-04-21 19:46 | 42.90560 | -8.42060 | 1167 ft | 32 kts | 346° |
| 2026-04-21 19:47 | 42.90769 | -8.42125 | 1156 ft | 34 kts | 348° |
| 2026-04-21 19:47 | 42.90985 | -8.42203 | 1144 ft | 37 kts | 345° |
| 2026-04-21 19:47 | 42.91145 | -8.42173 | 1143 ft | 18 kts | 63° |
| 2026-04-21 19:47 | 42.91137 | -8.42050 | 1153 ft | 11 kts | 132° |
| 2026-04-21 19:48 | 42.91068 | -8.41997 | 1159 ft | 13 kts | 165° |
| 2026-04-21 19:48 | 42.91010 | -8.41975 | 1162 ft | 12 kts | 164° |
| 2026-04-21 19:48 | 42.90798 | -8.41906 | 1172 ft | 66 kts | 169° |
| 2026-04-21 19:48 | 42.90195 | -8.41705 | 1192 ft | 127 kts | 167° |
| 2026-04-21 19:49 | 42.89338 | -8.41419 | 1320 ft | 163 kts | 168° |
| 2026-04-21 19:49 | 42.88343 | -8.41076 | 1862 ft | 167 kts | 168° |
| 2026-04-21 19:49 | 42.87337 | -8.40682 | 2535 ft | 169 kts | 166° |
| 2026-04-21 19:49 | 42.86332 | -8.40288 | 3079 ft | 173 kts | 167° |
| 2026-04-21 19:50 | 42.85563 | -8.40002 | 3357 ft | 184 kts | 167° |
| 2026-04-21 19:50 | 42.84020 | -8.39304 | 3879 ft | 206 kts | 150° |
| 2026-04-21 19:50 | 42.83137 | -8.37854 | 4478 ft | 221 kts | 111° |
| 2026-04-21 19:50 | 42.83056 | -8.35910 | 4976 ft | 240 kts | 76° |
| 2026-04-21 19:51 | 42.83788 | -8.34156 | 5414 ft | 258 kts | 44° |
| 2026-04-21 19:51 | 42.85361 | -8.33008 | 5903 ft | 272 kts | 8° |
| 2026-04-21 19:51 | 42.87157 | -8.33096 | 6495 ft | 280 kts | 347° |
| 2026-04-21 19:51 | 42.88867 | -8.33630 | 7235 ft | 284 kts | 343° |
| 2026-04-21 19:52 | 42.90595 | -8.34248 | 8004 ft | 287 kts | 342° |
| 2026-04-21 19:52 | 42.92533 | -8.34941 | 8888 ft | 289 kts | 342° |
| 2026-04-21 19:52 | 42.94484 | -8.35614 | 9766 ft | 291 kts | 342° |
| 2026-04-21 19:52 | 42.96449 | -8.36094 | 10408 ft | 306 kts | 354° |
| 2026-04-21 19:53 | 42.98648 | -8.35554 | 10799 ft | 335 kts | 18° |
| 2026-04-21 19:53 | 43.00533 | -8.34273 | 11402 ft | 345 kts | 25° |
| 2026-04-21 19:53 | 43.01633 | -8.33397 | 11847 ft | 347 kts | 26° |